ADDS METAR Data INFO
IDs: Format: Raw Decoded Include TAF

Data at: 2334 UTC 15 Dec 2017

KLEB 152253Z 00000KT 10SM OVC090 M08/M12 A2985 RMK AO2 SLP129 T10831117
KLEB 152153Z 00000KT 10SM SCT038 OVC100 M08/M12 A2987 RMK AO2 SLP136 T10831117
KLEB 152053Z 00000KT 9SM FEW110 M07/M12 A2989 RMK AO2 SLP142 T10721122 58018
KLEB 151953Z 00000KT 10SM BKN110 M08/M12 A2991 RMK AO2 SLP151 T10781122
KLEB 151853Z 00000KT 10SM CLR M07/M14 A2993 RMK AO2 SLP155 T10721139
KLEB 151753Z 00000KT 10SM CLR M09/M14 A2995 RMK AO2 SLP161 T10891144 11089 21239 58032
KLEB 151653Z 00000KT 10SM CLR M12/M15 A2998 RMK AO2 SLP175 T11221150
KLEB 151553Z 00000KT 10SM CLR M15/M17 A3002 RMK AO2 SLP188 T11501172
KLEB 151453Z 00000KT 9SM CLR M16/M18 A3004 RMK AO2 SLP197 T11611183 50007
KLEB 151410Z 00000KT 3SM BR CLR M19/M21 A3004 RMK AO2 T11891211
KLEB 151356Z 00000KT 1 3/4SM BR CLR M21/M22 A3004 RMK AO2 T12061222
KLEB 151353Z 00000KT 8SM CLR M20/M22 A3004 RMK AO2 SLP198 T12001222
KLEB 151253Z 00000KT 10SM CLR M22/M24 A3003 RMK AO2 SLP196 T12171244
KLEB 151153Z 00000KT 8SM CLR M23/M25 A3002 RMK AO2 SLP188 I1000 I6000 T12281250 11189 21239 51007
KLEB 151053Z 00000KT 5SM BR FEW001 M23/M25 A3001 RMK AO2 SLP184 I1000 T12281250
KLEB 151048Z 00000KT 8SM FEW001 M22/M24 A3001 RMK AO2
KLEB 150953Z AUTO 00000KT 10SM CLR M22/M24 A3000 RMK AO2 SLP180 I1000 T12171239
KLEB 150853Z AUTO 17003KT 10SM CLR M20/M22 A2999 RMK AO2 SLP177 I1000 I3000 T12001222 51012
KLEB 150753Z AUTO 06003KT 10SM CLR M20/M23 A2999 RMK AO2 SLP175 I1000 T12001228
KLEB 150653Z AUTO 00000KT 10SM CLR M21/M23 A2997 RMK AO2 SLP168 I1000 T12061228
KLEB 150553Z AUTO 00000KT 10SM CLR M20/M22 A2996 RMK AO2 SLP164 I1000 I6000 T12001217 11100 21206 51016
KLEB 150453Z AUTO 00000KT 10SM CLR M19/M21 A2995 RMK AO2 SLP162 T11891211 410561200
KLEB 150353Z AUTO 00000KT 10SM CLR M18/M21 A2993 RMK AO2 SLP156 T11781206
KLEB 150253Z 00000KT 10SM CLR M19/M22 A2991 RMK AO2 SLP149 T11941222 53023
KLEB 150153Z 00000KT 10SM CLR M17/M20 A2988 RMK AO2 SLP139 T11721200
KLEB 150053Z 00000KT 10SM CLR M15/M19 A2985 RMK AO2 SLP129 T11501194
KLEB 142353Z 33004KT 10SM CLR M10/M21 A2984 RMK AO2 SLP121 T11001211 11056 21106 51036
KLEB 142253Z VRB05KT 10SM CLR M08/M21 A2981 RMK AO2 SLP112 T10831206
KLEB 142153Z 30006G16KT 10SM CLR M08/M21 A2977 RMK AO2 SLP098 T10781206
KLEB 142053Z 26008KT 10SM CLR M07/M19 A2973 RMK AO2 SLP084 T10671194 53031
KLEB 141953Z AUTO 32009KT 270V350 10SM CLR M06/M18 A2970 RMK AO2 SLP072 T10611183
KLEB 141853Z 33008G16KT 10SM CLR M06/M18 A2967 RMK AO2 SLP062 T10561183
KLEB 141753Z 29008KT 10SM CLR M06/M17 A2964 RMK AO2 SLP053 T10561172 11056 21111 53012
KLEB 141653Z 32010G15KT 10SM CLR M06/M16 A2962 RMK AO2 SLP045 T10561156
KLEB 141553Z 00000KT 10SM CLR M09/M16 A2961 RMK AO2 SLP045 T10941156
KLEB 141453Z 00000KT 8SM CLR M09/M14 A2960 RMK AO2 SLP041 T10891139 53014
KLEB 141353Z 00000KT 10SM FEW120 M11/M14 A2959 RMK AO2 SLP035 T11061139
KLEB 141253Z 01003KT 9SM BKN095 OVC110 M11/M13 A2957 RMK AO2 SLP031 T11061133
KLEB 141153Z 00000KT 10SM OVC080 M11/M13 A2956 RMK AO2 SLP026 T11061133 11094 21139 53014